Oberon — SKJF — position and weather

sailwx.info

Track history (hours):
 
Tides and Currents Weather Stations Pressure Air Temp Water Temp Dewpoint Dewpoint Depression Visibility Wind Speed Wind Dir Waves Ship Positions

Oberon

Last reported at 2016-Sep-30 08:33 UTC. Time now 2016-Oct-01 18:55 UTC.
Position N 33°56' E 134°53'.

Length 232 m; draft 9.4 m.

Type: Cargo ship. MMSI: 266283000.

Date/timePositionNaut miles runAvg speedWind from/ knotsBaromVisibWave heightAir tempDewpointWater temp
2016-Sep-30 08:33N 33°56' E 134°53'44 1.8
2016-Sep-29 08:31N 34°36' E 135°15'4 0.5
2016-Sep-29 00:33N 34°32' E 135°14'154 4.5
2016-Sep-27 14:04N 34°28' E 138°21'811.0
2016-Sep-27 13:18N 34°29' E 138°31'83 6.5
2016-Sep-27 00:32N 35°28' E 139°41'5 1.4
2016-Sep-26 20:33N 35°24' E 139°46'1010.3
2016-Sep-26 19:33N 35°13' E 139°47'31 7.8
2016-Sep-26 15:33N 34°53' E 140°15'2612.9
2016-Sep-26 13:33N 35°09' E 140°40'2512.5
2016-Sep-26 11:33N 35°27' E 141°00'3812.7
2016-Sep-26 08:33N 36°06' E 141°03'22 2.0
2016-Sep-25 21:13N 36°22' E 140°44'11 3.0
2016-Sep-25 17:33N 36°22' E 140°58'7 2.2
2016-Sep-25 14:26N 36°21' E 141°06'6 0.4
2016-Sep-25 00:33N 36°24' E 141°13'1 0.3
2016-Sep-24 22:33N 36°24' E 141°13'1 0.9
2016-Sep-24 21:24N 36°25' E 141°14'3 1.4
2016-Sep-24 19:19N 36°22' E 141°14'1 1.4
2016-Sep-24 18:24N 36°21' E 141°15'1 1.4
2016-Sep-24 17:24N 36°22' E 141°15'2 1.8
2016-Sep-24 16:28N 36°24' E 141°15'  
Track history (hours):
 
Tides and Currents Weather Stations Pressure Air Temp Water Temp Dewpoint Dewpoint Depression Visibility Wind Speed Wind Dir Waves Ship Positions

Oberon

Last reported at 2016-Sep-30 08:33 UTC. Time now 2016-Oct-01 18:55 UTC.
Position N 33°56' E 134°53'.

Length 232 m; draft 9.4 m.

Type: Cargo ship. MMSI: 266283000.

Date/timePositionNaut miles runAvg speedWind from/ knotsBaromVisibWave heightAir tempDewpointWater temp
2016-Sep-30 08:33N 33°56' E 134°53'44 1.8
2016-Sep-29 08:31N 34°36' E 135°15'4 0.5
2016-Sep-29 00:33N 34°32' E 135°14'154 4.5
2016-Sep-27 14:04N 34°28' E 138°21'811.0
2016-Sep-27 13:18N 34°29' E 138°31'83 6.5
2016-Sep-27 00:32N 35°28' E 139°41'5 1.4
2016-Sep-26 20:33N 35°24' E 139°46'1010.3
2016-Sep-26 19:33N 35°13' E 139°47'31 7.8
2016-Sep-26 15:33N 34°53' E 140°15'2612.9
2016-Sep-26 13:33N 35°09' E 140°40'2512.5
2016-Sep-26 11:33N 35°27' E 141°00'3812.7
2016-Sep-26 08:33N 36°06' E 141°03'22 2.0
2016-Sep-25 21:13N 36°22' E 140°44'11 3.0
2016-Sep-25 17:33N 36°22' E 140°58'7 2.2
2016-Sep-25 14:26N 36°21' E 141°06'6 0.4
2016-Sep-25 00:33N 36°24' E 141°13'1 0.3
2016-Sep-24 22:33N 36°24' E 141°13'1 0.9
2016-Sep-24 21:24N 36°25' E 141°14'3 1.4
2016-Sep-24 19:19N 36°22' E 141°14'1 1.4
2016-Sep-24 18:24N 36°21' E 141°15'1 1.4
2016-Sep-24 17:24N 36°22' E 141°15'2 1.8
2016-Sep-24 16:28N 36°24' E 141°15'  

Dump ship's entire track history